Time;durP1;ratioP1;P1;durP2;ratioP2;P2;SDS_P1;SDS_P2;PMS_P1;PMS_P2;Temp;Humidity;BMP_temperature;BMP_pressure;BME280_temperature;BME280_humidity;BME280_pressure;Samples;Min_cycle;Max_cycle;Signal;HPM_P1;HPM_P2
2022/04/04 00:00:54;;;;;;;15.88;8.77;;;;;;;;;;5070665;28;20031;-79
2022/04/04 00:03:39;;;;;;;13.50;8.80;;;;;;;;;;5071648;28;20097;-71
2022/04/04 00:06:28;;;;;;;14.45;8.52;;;;;;;;;;5073682;28;20107;-64
2022/04/04 00:09:13;;;;;;;12.35;8.27;;;;;;;;;;5077832;28;20031;-59
2022/04/04 00:11:58;;;;;;;14.02;9.40;;;;;;;;;;5076861;28;20040;-61
2022/04/04 00:14:43;;;;;;;15.23;8.75;;;;;;;;;;5054995;28;20020;-63
2022/04/04 00:17:29;;;;;;;16.70;9.35;;;;;;;;;;5077664;28;20027;-61
2022/04/04 00:20:14;;;;;;;16.45;9.20;;;;;;;;;;5076925;28;20495;-62
2022/04/04 00:22:59;;;;;;;13.75;8.13;;;;;;;;;;5065404;28;20036;-66
2022/04/04 00:25:45;;;;;;;13.13;9.10;;;;;;;;;;5064937;28;20016;-70
2022/04/04 00:28:31;;;;;;;12.77;8.13;;;;;;;;;;5066560;28;20024;-68
2022/04/04 00:31:17;;;;;;;16.33;9.60;;;;;;;;;;5076829;28;20145;-68
2022/04/04 00:34:02;;;;;;;13.75;9.65;;;;;;;;;;5083865;28;20139;-68
2022/04/04 00:36:47;;;;;;;15.38;9.30;;;;;;;;;;5064840;28;20028;-66
2022/04/04 00:39:32;;;;;;;12.70;8.98;;;;;;;;;;5082937;28;20043;-71
2022/04/04 00:42:18;;;;;;;12.80;8.25;;;;;;;;;;5075486;28;20084;-71
2022/04/04 00:45:03;;;;;;;12.85;8.02;;;;;;;;;;5074196;28;20471;-81
2022/04/04 00:47:48;;;;;;;13.63;9.32;;;;;;;;;;5076629;28;20020;-79
2022/04/04 00:50:34;;;;;;;14.27;9.02;;;;;;;;;;5062018;28;20130;-79
2022/04/04 00:53:19;;;;;;;16.08;9.88;;;;;;;;;;5075584;28;20054;-80
2022/04/04 00:56:05;;;;;;;13.20;9.02;;;;;;;;;;5074774;28;20164;-80
2022/04/04 00:58:50;;;;;;;12.90;8.18;;;;;;;;;;5058833;28;20111;-62
2022/04/04 01:01:36;;;;;;;14.57;9.02;;;;;;;;;;5076401;28;20470;-81
2022/04/04 01:04:21;;;;;;;14.15;8.38;;;;;;;;;;5075630;28;20032;-69
2022/04/04 01:07:06;;;;;;;12.93;8.52;;;;;;;;;;5076893;28;20444;-69
2022/04/04 01:09:51;;;;;;;12.75;8.63;;;;;;;;;;5077954;28;20058;-71
2022/04/04 01:12:37;;;;;;;13.55;7.93;;;;;;;;;;5073083;28;20064;-72
2022/04/04 01:15:23;;;;;;;13.07;8.20;;;;;;;;;;5076118;28;20020;-68
2022/04/04 01:18:09;;;;;;;13.75;8.02;;;;;;;;;;5076058;28;20024;-65
2022/04/04 01:20:54;;;;;;;13.68;8.70;;;;;;;;;;5076599;28;20102;-69
2022/04/04 01:23:41;;;;;;;13.82;8.40;;;;;;;;;;5076668;28;20036;-71
2022/04/04 01:26:26;;;;;;;13.73;9.35;;;;;;;;;;5078182;28;20024;-69
2022/04/04 01:29:12;;;;;;;14.18;8.95;;;;;;;;;;5073332;28;20503;-69
2022/04/04 01:31:57;;;;;;;13.63;8.77;;;;;;;;;;5062311;28;20089;-69
2022/04/04 01:34:42;;;;;;;15.85;9.50;;;;;;;;;;5069654;28;20023;-69
2022/04/04 01:37:28;;;;;;;15.70;9.55;;;;;;;;;;5061318;28;20467;-65
2022/04/04 01:40:14;;;;;;;13.82;9.20;;;;;;;;;;5074659;28;20359;-71
2022/04/04 01:42:59;;;;;;;14.80;8.40;;;;;;;;;;5067983;28;20024;-69
2022/04/04 01:48:48;;;;;;;17.48;9.73;;;;;;;;;;5065859;28;20573;-69
2022/04/04 01:51:35;;;;;;;14.52;8.25;;;;;;;;;;5076866;28;20099;-70
2022/04/04 01:54:20;;;;;;;13.13;7.80;;;;;;;;;;5056229;28;20518;-67
2022/04/04 01:57:06;;;;;;;14.10;8.00;;;;;;;;;;5073171;28;20026;-72
2022/04/04 01:59:51;;;;;;;12.25;8.10;;;;;;;;;;5074108;28;20082;-71
2022/04/04 02:02:36;;;;;;;14.35;8.63;;;;;;;;;;5071301;28;20280;-70
2022/04/04 02:05:21;;;;;;;14.45;8.90;;;;;;;;;;5074744;28;20020;-71
2022/04/04 02:08:07;;;;;;;13.95;8.90;;;;;;;;;;5075009;28;20020;-72
2022/04/04 02:10:52;;;;;;;14.77;8.38;;;;;;;;;;5074959;28;20420;-71
2022/04/04 02:13:38;;;;;;;12.90;8.15;;;;;;;;;;5073932;28;20495;-68
2022/04/04 02:16:23;;;;;;;14.23;8.07;;;;;;;;;;5066174;28;20032;-63
2022/04/04 02:19:09;;;;;;;13.40;7.57;;;;;;;;;;5081171;28;20051;-68
2022/04/04 02:21:55;;;;;;;12.55;7.90;;;;;;;;;;5064479;28;20505;-62
2022/04/04 02:24:40;;;;;;;15.02;8.07;;;;;;;;;;5048411;28;20149;-63
2022/04/04 02:27:25;;;;;;;14.75;8.18;;;;;;;;;;5071406;28;20024;-61
2022/04/04 02:30:11;;;;;;;13.25;7.65;;;;;;;;;;5060143;28;20509;-63
2022/04/04 02:32:56;;;;;;;11.77;8.32;;;;;;;;;;5074908;28;20111;-70
2022/04/04 02:35:42;;;;;;;11.90;7.30;;;;;;;;;;5060807;28;20039;-64
2022/04/04 02:38:27;;;;;;;12.40;8.02;;;;;;;;;;5067650;28;20035;-61
2022/04/04 02:41:13;;;;;;;12.77;7.10;;;;;;;;;;5076814;28;20538;-63
2022/04/04 02:43:58;;;;;;;13.95;7.95;;;;;;;;;;5060698;28;20309;-62
2022/04/04 02:46:43;;;;;;;11.15;7.47;;;;;;;;;;5061126;28;20077;-60
2022/04/04 02:49:29;;;;;;;11.95;7.68;;;;;;;;;;5074277;28;20052;-79
2022/04/04 02:52:14;;;;;;;12.25;7.85;;;;;;;;;;5064375;28;20084;-67
2022/04/04 02:56:28;;;;;;;17.73;9.40;;;;;;;;;;5080243;28;20131;-69
2022/04/04 02:58:04;;;;;;;11.48;7.13;;;;;;;;;;5072799;28;20119;-69
2022/04/04 03:00:50;;;;;;;11.43;7.40;;;;;;;;;;5069664;28;20028;-68
2022/04/04 03:03:35;;;;;;;12.75;7.43;;;;;;;;;;5075286;28;20487;-69
2022/04/04 03:06:20;;;;;;;13.07;7.82;;;;;;;;;;5060658;28;20179;-69
2022/04/04 03:09:05;;;;;;;13.73;7.15;;;;;;;;;;5061136;28;20052;-69
2022/04/04 03:11:51;;;;;;;11.80;7.18;;;;;;;;;;5057482;28;20403;-70
2022/04/04 03:14:36;;;;;;;12.52;6.95;;;;;;;;;;5074017;28;20028;-71
2022/04/04 03:17:21;;;;;;;13.10;7.65;;;;;;;;;;5063331;28;20067;-72
2022/04/04 03:20:09;;;;;;;13.27;8.23;;;;;;;;;;5074530;28;20026;-71
2022/04/04 03:22:55;;;;;;;10.02;6.88;;;;;;;;;;5074007;28;20063;-71
2022/04/04 03:25:42;;;;;;;13.00;8.27;;;;;;;;;;5073995;28;20538;-69
2022/04/04 03:28:27;;;;;;;13.80;8.35;;;;;;;;;;5058764;28;20042;-60
2022/04/04 03:31:13;;;;;;;13.25;7.85;;;;;;;;;;5073021;28;20032;-70
2022/04/04 03:33:59;;;;;;;12.80;7.18;;;;;;;;;;5079026;28;20012;-71
2022/04/04 03:36:44;;;;;;;12.85;7.32;;;;;;;;;;5073161;28;20058;-68
2022/04/04 03:39:29;;;;;;;11.52;7.95;;;;;;;;;;5084686;28;20024;-69
2022/04/04 03:42:16;;;;;;;13.75;7.63;;;;;;;;;;5074175;28;20031;-69
2022/04/04 03:45:01;;;;;;;12.05;6.82;;;;;;;;;;5082502;28;20393;-60
2022/04/04 03:47:47;;;;;;;11.00;6.78;;;;;;;;;;5072125;28;20039;-82
2022/04/04 03:50:32;;;;;;;14.23;7.78;;;;;;;;;;5057304;28;20030;-81
2022/04/04 03:53:18;;;;;;;11.98;7.65;;;;;;;;;;5091943;28;20051;-81
2022/04/04 03:56:03;;;;;;;13.32;7.78;;;;;;;;;;5073379;28;20035;-79
2022/04/04 03:58:49;;;;;;;12.90;6.85;;;;;;;;;;5073923;28;20093;-80
2022/04/04 04:01:34;;;;;;;9.73;6.47;;;;;;;;;;5072288;28;20072;-79
2022/04/04 04:04:20;;;;;;;11.27;7.50;;;;;;;;;;5073733;28;20028;-82
2022/04/04 04:07:05;;;;;;;12.52;6.93;;;;;;;;;;5076936;28;20036;-72
2022/04/04 04:09:52;;;;;;;12.82;7.05;;;;;;;;;;5058799;28;20160;-71
2022/04/04 04:12:39;;;;;;;13.57;6.88;;;;;;;;;;5061594;28;20056;-72
2022/04/04 04:15:25;;;;;;;12.27;6.75;;;;;;;;;;5073080;28;20046;-70
2022/04/04 04:18:10;;;;;;;12.73;7.65;;;;;;;;;;5073383;28;20081;-70
2022/04/04 04:20:56;;;;;;;11.93;7.68;;;;;;;;;;5077004;28;20027;-61
2022/04/04 04:23:42;;;;;;;13.57;8.00;;;;;;;;;;5063117;28;20031;-70
2022/04/04 04:26:28;;;;;;;13.15;6.95;;;;;;;;;;5072985;28;20463;-59
2022/04/04 04:29:13;;;;;;;11.10;6.95;;;;;;;;;;5076807;28;20027;-61
2022/04/04 04:31:58;;;;;;;11.95;7.53;;;;;;;;;;5075451;28;20016;-60
2022/04/04 04:34:50;;;;;;;12.48;6.75;;;;;;;;;;5080188;28;20036;-60
2022/04/04 04:37:35;;;;;;;12.05;7.18;;;;;;;;;;5091587;28;20027;-61
2022/04/04 04:40:21;;;;;;;13.40;7.40;;;;;;;;;;5083245;28;20491;-72
2022/04/04 04:43:06;;;;;;;13.68;6.93;;;;;;;;;;5076330;28;20513;-69
2022/04/04 04:45:52;;;;;;;13.13;8.07;;;;;;;;;;5076960;28;20313;-69
2022/04/04 04:48:37;;;;;;;14.75;7.25;;;;;;;;;;5074394;28;20082;-69
2022/04/04 04:51:22;;;;;;;12.30;6.53;;;;;;;;;;5065856;28;20035;-68
2022/04/04 04:54:08;;;;;;;12.77;6.93;;;;;;;;;;5057144;28;20463;-68
2022/04/04 04:56:53;;;;;;;13.07;7.28;;;;;;;;;;5059591;28;20016;-68
2022/04/04 04:59:39;;;;;;;14.52;7.38;;;;;;;;;;5063108;28;20065;-63
2022/04/04 05:02:24;;;;;;;11.57;6.85;;;;;;;;;;5060356;28;20077;-68
2022/04/04 05:05:09;;;;;;;10.77;6.78;;;;;;;;;;5063570;28;20032;-70
2022/04/04 05:07:54;;;;;;;15.00;7.07;;;;;;;;;;5064926;28;20417;-69
2022/04/04 05:10:40;;;;;;;12.23;6.68;;;;;;;;;;5070672;28;20115;-70
2022/04/04 05:13:26;;;;;;;11.25;7.32;;;;;;;;;;5084929;28;20104;-70
2022/04/04 05:16:14;;;;;;;10.68;6.50;;;;;;;;;;5096768;28;20072;-71
2022/04/04 05:18:59;;;;;;;13.32;7.07;;;;;;;;;;5095353;28;20071;-63
2022/04/04 05:21:45;;;;;;;11.88;6.95;;;;;;;;;;5083082;28;20058;-65
2022/04/04 05:24:31;;;;;;;11.95;6.90;;;;;;;;;;5075016;28;20032;-66
2022/04/04 05:27:16;;;;;;;14.43;7.75;;;;;;;;;;5076739;28;20093;-65
2022/04/04 05:30:02;;;;;;;13.55;8.00;;;;;;;;;;5079220;28;20023;-65
2022/04/04 05:32:47;;;;;;;12.50;6.43;;;;;;;;;;5087560;28;20023;-67
2022/04/04 05:35:33;;;;;;;13.23;6.47;;;;;;;;;;5056404;28;20492;-63
2022/04/04 05:38:18;;;;;;;12.50;6.18;;;;;;;;;;5057921;28;20025;-64
2022/04/04 05:41:04;;;;;;;12.38;7.05;;;;;;;;;;5082602;28;20313;-64
2022/04/04 05:43:49;;;;;;;15.13;7.60;;;;;;;;;;5083445;28;20032;-67
2022/04/04 05:46:34;;;;;;;11.77;6.72;;;;;;;;;;5096365;28;20386;-67
2022/04/04 05:49:20;;;;;;;13.40;6.78;;;;;;;;;;5081079;28;20062;-66
2022/04/04 05:52:05;;;;;;;12.90;7.05;;;;;;;;;;5071344;28;20038;-64
2022/04/04 05:54:54;;;;;;;12.57;7.78;;;;;;;;;;5067517;28;20032;-77
2022/04/04 05:57:39;;;;;;;13.68;7.95;;;;;;;;;;5066843;28;20024;-70
2022/04/04 06:00:25;;;;;;;10.98;7.53;;;;;;;;;;5071952;28;20013;-72
2022/04/04 06:03:10;;;;;;;13.60;7.50;;;;;;;;;;5066584;28;20040;-74
2022/04/04 06:05:55;;;;;;;17.58;7.97;;;;;;;;;;5062194;28;20052;-72
2022/04/04 06:08:41;;;;;;;13.75;8.00;;;;;;;;;;5062566;28;20032;-76
2022/04/04 06:11:26;;;;;;;13.73;8.18;;;;;;;;;;5072310;28;20043;-75
2022/04/04 06:14:11;;;;;;;17.15;8.90;;;;;;;;;;5078714;28;20058;-69
2022/04/04 06:16:57;;;;;;;17.45;9.63;;;;;;;;;;5063276;28;20028;-66
2022/04/04 06:19:43;;;;;;;17.40;8.98;;;;;;;;;;5061075;28;20039;-64
2022/04/04 06:22:33;;;;;;;15.18;8.02;;;;;;;;;;5063390;28;20277;-64
2022/04/04 06:25:21;;;;;;;16.70;8.13;;;;;;;;;;5062385;28;20493;-66
2022/04/04 06:28:07;;;;;;;13.77;8.20;;;;;;;;;;5066021;28;20024;-67
2022/04/04 06:30:52;;;;;;;14.40;8.80;;;;;;;;;;5065965;28;20135;-67
2022/04/04 06:33:39;;;;;;;15.30;8.63;;;;;;;;;;5055715;28;20082;-70
2022/04/04 06:36:26;;;;;;;13.98;8.30;;;;;;;;;;5068119;28;20058;-71
2022/04/04 06:39:11;;;;;;;13.30;8.15;;;;;;;;;;5063599;28;20029;-63
2022/04/04 06:41:57;;;;;;;12.13;7.97;;;;;;;;;;5070820;28;20036;-62
2022/04/04 06:44:45;;;;;;;14.68;8.05;;;;;;;;;;5057941;28;20032;-61
2022/04/04 06:47:30;;;;;;;15.70;7.95;;;;;;;;;;5073162;28;20114;-65
2022/04/04 06:50:16;;;;;;;13.98;8.45;;;;;;;;;;5056925;28;20028;-69
2022/04/04 06:53:01;;;;;;;11.23;7.28;;;;;;;;;;5071205;28;20531;-62
2022/04/04 06:55:47;;;;;;;11.18;6.32;;;;;;;;;;5062790;28;20060;-65
2022/04/04 06:58:33;;;;;;;10.82;6.85;;;;;;;;;;5065986;28;20013;-64
2022/04/04 07:01:19;;;;;;;10.18;6.78;;;;;;;;;;5058682;28;20024;-64
2022/04/04 07:04:04;;;;;;;9.98;6.22;;;;;;;;;;5056871;28;20039;-64
2022/04/04 07:06:49;;;;;;;12.30;7.32;;;;;;;;;;5071515;28;20020;-61
2022/04/04 07:09:35;;;;;;;10.85;7.22;;;;;;;;;;5065430;28;20733;-65
2022/04/04 07:12:20;;;;;;;13.50;7.25;;;;;;;;;;5059999;28;20053;-68
2022/04/04 07:15:07;;;;;;;10.38;6.88;;;;;;;;;;5060795;28;20071;-69
2022/04/04 07:17:52;;;;;;;9.10;6.25;;;;;;;;;;5061299;28;20056;-67
2022/04/04 07:20:38;;;;;;;10.80;6.45;;;;;;;;;;5057689;28;20055;-66
2022/04/04 07:23:24;;;;;;;10.73;6.35;;;;;;;;;;5064223;28;20037;-65
2022/04/04 07:26:09;;;;;;;10.40;6.90;;;;;;;;;;5057799;28;20098;-63
2022/04/04 07:28:54;;;;;;;10.00;5.75;;;;;;;;;;5059112;28;20037;-69
2022/04/04 07:31:40;;;;;;;10.68;6.28;;;;;;;;;;5057533;28;20020;-67
2022/04/04 07:34:25;;;;;;;10.65;5.78;;;;;;;;;;5060941;28;20111;-70
2022/04/04 07:37:10;;;;;;;10.82;5.60;;;;;;;;;;5063379;28;20027;-69
2022/04/04 07:39:55;;;;;;;11.10;5.22;;;;;;;;;;5054481;28;20044;-68
2022/04/04 07:42:42;;;;;;;11.43;5.70;;;;;;;;;;5058611;28;20029;-70
2022/04/04 07:45:29;;;;;;;11.02;5.65;;;;;;;;;;5062648;28;20422;-65
2022/04/04 07:48:15;;;;;;;9.50;5.45;;;;;;;;;;5060699;28;20024;-71
2022/04/04 07:51:00;;;;;;;11.57;5.53;;;;;;;;;;5059389;28;20020;-73
2022/04/04 07:53:45;;;;;;;12.35;7.22;;;;;;;;;;5062939;28;20036;-72
2022/04/04 07:56:30;;;;;;;8.77;4.70;;;;;;;;;;5065093;28;20123;-69
2022/04/04 07:59:16;;;;;;;9.27;4.85;;;;;;;;;;5061990;28;20108;-70
2022/04/04 08:02:01;;;;;;;11.82;5.55;;;;;;;;;;5056972;28;20522;-68
2022/04/04 08:04:46;;;;;;;10.90;5.75;;;;;;;;;;5062613;28;20535;-67
2022/04/04 08:07:32;;;;;;;9.50;6.05;;;;;;;;;;5054009;28;20028;-65
2022/04/04 08:10:17;;;;;;;11.48;5.82;;;;;;;;;;5050335;28;20526;-65
2022/04/04 08:13:02;;;;;;;10.35;5.45;;;;;;;;;;5061945;28;20062;-61
2022/04/04 08:15:48;;;;;;;10.43;5.55;;;;;;;;;;5059398;28;20032;-67
2022/04/04 08:18:33;;;;;;;6.63;4.72;;;;;;;;;;5054728;28;20075;-67
2022/04/04 08:21:19;;;;;;;10.32;5.45;;;;;;;;;;5044760;28;20024;-65
2022/04/04 08:24:04;;;;;;;11.30;5.57;;;;;;;;;;5061733;28;20070;-73
2022/04/04 08:26:49;;;;;;;9.65;5.28;;;;;;;;;;5068317;28;20111;-72
2022/04/04 08:29:35;;;;;;;8.60;5.40;;;;;;;;;;5061650;28;20028;-71
2022/04/04 08:32:20;;;;;;;11.82;6.38;;;;;;;;;;5054756;28;20035;-73
2022/04/04 08:35:06;;;;;;;9.50;5.63;;;;;;;;;;5063422;28;20163;-73
2022/04/04 08:37:52;;;;;;;10.25;5.65;;;;;;;;;;5058330;28;20056;-71
2022/04/04 08:40:37;;;;;;;12.80;5.90;;;;;;;;;;5060666;28;20026;-66
2022/04/04 08:43:24;;;;;;;9.98;5.20;;;;;;;;;;5066422;28;20032;-65
2022/04/04 08:46:09;;;;;;;7.68;5.20;;;;;;;;;;5069363;28;20024;-69
2022/04/04 08:48:58;;;;;;;8.32;5.50;;;;;;;;;;5062589;28;20021;-66
2022/04/04 08:51:43;;;;;;;8.65;5.63;;;;;;;;;;5080797;28;20379;-67
2022/04/04 08:54:29;;;;;;;10.80;5.88;;;;;;;;;;5049928;28;20016;-66
2022/04/04 08:57:14;;;;;;;10.05;6.10;;;;;;;;;;5049604;28;20653;-67
2022/04/04 09:00:00;;;;;;;10.57;5.65;;;;;;;;;;5066216;28;20431;-70
2022/04/04 09:02:58;;;;;;;11.18;5.43;;;;;;;;;;5060051;28;20539;-62
2022/04/04 09:05:54;;;;;;;9.40;5.10;;;;;;;;;;5053350;28;20029;-61
2022/04/04 09:08:47;;;;;;;7.63;4.85;;;;;;;;;;5066048;28;20020;-64
2022/04/04 09:11:32;;;;;;;7.22;5.30;;;;;;;;;;5065726;28;20066;-65
2022/04/04 09:14:20;;;;;;;7.28;4.55;;;;;;;;;;5049904;28;20024;-64
2022/04/04 09:17:06;;;;;;;8.40;5.13;;;;;;;;;;5071342;28;20115;-70
2022/04/04 09:19:51;;;;;;;8.30;5.07;;;;;;;;;;5066363;28;20505;-72
2022/04/04 09:22:50;;;;;;;8.73;5.97;;;;;;;;;;5072511;28;20035;-74
2022/04/04 09:25:35;;;;;;;7.72;4.90;;;;;;;;;;5066529;28;20036;-72
2022/04/04 09:28:20;;;;;;;7.05;4.85;;;;;;;;;;5079837;28;20039;-71
2022/04/04 09:31:07;;;;;;;8.13;5.32;;;;;;;;;;5068407;28;20027;-71
2022/04/04 09:33:52;;;;;;;7.35;5.30;;;;;;;;;;5070658;28;20115;-70
2022/04/04 09:36:44;;;;;;;8.18;5.65;;;;;;;;;;5060185;28;20028;-69
2022/04/04 09:39:33;;;;;;;7.93;4.63;;;;;;;;;;5071276;28;20032;-64
2022/04/04 09:42:19;;;;;;;7.40;4.57;;;;;;;;;;5063766;28;20459;-65
2022/04/04 09:45:05;;;;;;;9.82;5.57;;;;;;;;;;5070458;28;20078;-65
2022/04/04 09:47:57;;;;;;;10.30;4.57;;;;;;;;;;5068901;28;20042;-63
2022/04/04 09:50:47;;;;;;;7.38;4.68;;;;;;;;;;5066473;28;20115;-63
2022/04/04 09:53:32;;;;;;;9.27;5.55;;;;;;;;;;5068075;28;20028;-71
2022/04/04 09:56:25;;;;;;;6.93;4.93;;;;;;;;;;5047618;28;20079;-72
2022/04/04 09:59:12;;;;;;;6.85;4.63;;;;;;;;;;5044858;28;20530;-71
2022/04/04 10:01:58;;;;;;;6.47;5.13;;;;;;;;;;5077081;28;20399;-70
2022/04/04 10:04:44;;;;;;;7.70;4.68;;;;;;;;;;5074380;28;20040;-72
2022/04/04 10:07:29;;;;;;;6.55;4.78;;;;;;;;;;5061036;28;20434;-73
2022/04/04 10:10:16;;;;;;;10.23;5.18;;;;;;;;;;5072254;28;20031;-71
2022/04/04 10:13:01;;;;;;;7.60;5.55;;;;;;;;;;5062889;28;20379;-70
2022/04/04 10:15:48;;;;;;;8.27;5.93;;;;;;;;;;5068566;28;20044;-62
2022/04/04 10:18:35;;;;;;;8.27;4.88;;;;;;;;;;5061757;28;20575;-65
2022/04/04 10:21:21;;;;;;;7.90;5.50;;;;;;;;;;5085729;28;20043;-67
2022/04/04 10:24:08;;;;;;;7.78;5.75;;;;;;;;;;5062686;28;20581;-65
2022/04/04 10:26:53;;;;;;;10.77;5.75;;;;;;;;;;5068501;28;20028;-68
2022/04/04 10:29:40;;;;;;;13.68;6.57;;;;;;;;;;5068634;28;20502;-65
2022/04/04 10:32:28;;;;;;;13.38;6.85;;;;;;;;;;5070555;28;20115;-63
2022/04/04 10:35:13;;;;;;;10.52;5.95;;;;;;;;;;5061202;28;20016;-71
2022/04/04 10:38:03;;;;;;;7.78;5.70;;;;;;;;;;5069862;28;20426;-72
2022/04/04 10:40:48;;;;;;;7.85;5.70;;;;;;;;;;5065508;28;20463;-72
2022/04/04 10:43:35;;;;;;;9.40;5.57;;;;;;;;;;5070946;28;20044;-71
2022/04/04 10:46:21;;;;;;;7.97;5.13;;;;;;;;;;5077139;28;20177;-64
2022/04/04 10:49:07;;;;;;;6.53;4.80;;;;;;;;;;5062087;28;20066;-66
2022/04/04 10:51:52;;;;;;;6.88;5.07;;;;;;;;;;5076911;28;20463;-65
2022/04/04 10:54:38;;;;;;;6.30;4.65;;;;;;;;;;5069215;28;20161;-65
2022/04/04 10:57:23;;;;;;;7.05;4.65;;;;;;;;;;5065597;28;20031;-63
2022/04/04 11:00:09;;;;;;;6.50;4.45;;;;;;;;;;5057471;28;20036;-63
2022/04/04 11:02:55;;;;;;;5.45;3.97;;;;;;;;;;5067935;28;20028;-64
2022/04/04 11:09:04;;;;;;;6.45;4.15;;;;;;;;;;5064081;28;20031;-61
2022/04/04 11:11:59;;;;;;;6.50;4.28;;;;;;;;;;5060324;28;20045;-63
2022/04/04 11:14:47;;;;;;;7.35;4.22;;;;;;;;;;5053489;28;20028;-61
2022/04/04 11:17:40;;;;;;;7.68;3.95;;;;;;;;;;5064607;28;20036;-62
2022/04/04 11:20:36;;;;;;;9.57;4.57;;;;;;;;;;5057666;28;20241;-69
2022/04/04 11:23:26;;;;;;;5.60;4.47;;;;;;;;;;5042472;28;20032;-75
2022/04/04 11:26:18;;;;;;;7.75;4.70;;;;;;;;;;5059956;28;20068;-68
2022/04/04 11:29:03;;;;;;;8.00;4.63;;;;;;;;;;5065540;28;20039;-71
2022/04/04 11:31:48;;;;;;;5.82;4.45;;;;;;;;;;5050920;28;20479;-71
2022/04/04 11:34:39;;;;;;;6.63;4.32;;;;;;;;;;5056362;28;20411;-70
2022/04/04 11:37:27;;;;;;;6.30;4.05;;;;;;;;;;5060709;28;20023;-72
2022/04/04 11:40:14;;;;;;;6.85;4.35;;;;;;;;;;5055713;28;20057;-70
2022/04/04 11:43:02;;;;;;;7.05;4.53;;;;;;;;;;5056584;28;20151;-66
2022/04/04 11:45:49;;;;;;;6.55;4.25;;;;;;;;;;5061912;28;20032;-72
2022/04/04 11:48:39;;;;;;;6.55;4.53;;;;;;;;;;5058020;28;20044;-74
2022/04/04 11:51:24;;;;;;;;;;;;;;;;;;5055071;28;20379;-69
2022/04/04 11:54:11;;;;;;;6.60;4.38;;;;;;;;;;5063627;28;20042;-68
2022/04/04 11:56:58;;;;;;;8.95;4.60;;;;;;;;;;5054086;28;20092;-71
2022/04/04 11:59:47;;;;;;;6.50;4.53;;;;;;;;;;5055310;28;20131;-68
2022/04/04 12:02:33;;;;;;;7.97;5.05;;;;;;;;;;5055932;28;20024;-77
2022/04/04 12:05:23;;;;;;;5.68;4.13;;;;;;;;;;5064980;28;20020;-72
2022/04/04 12:08:09;;;;;;;6.32;4.50;;;;;;;;;;5059210;28;20082;-74
2022/04/04 12:10:54;;;;;;;6.82;4.40;;;;;;;;;;5061407;28;20036;-73
2022/04/04 12:13:52;;;;;;;9.20;5.10;;;;;;;;;;5060488;28;20045;-72
2022/04/04 12:16:47;;;;;;;7.72;4.60;;;;;;;;;;5050384;28;20033;-74
2022/04/04 12:19:46;;;;;;;8.20;4.53;;;;;;;;;;5058612;28;20153;-73
2022/04/04 12:25:36;;;;;;;7.45;3.83;;;;;;;;;;5055317;28;20036;-63
2022/04/04 12:28:22;;;;;;;10.95;4.40;;;;;;;;;;5055450;28;20111;-63
2022/04/04 12:31:18;;;;;;;8.90;4.85;;;;;;;;;;5055087;28;20040;-62
2022/04/04 12:34:08;;;;;;;6.13;4.18;;;;;;;;;;5044970;28;20032;-63
2022/04/04 12:36:58;;;;;;;9.90;5.35;;;;;;;;;;5049838;28;20364;-63
2022/04/04 12:39:43;;;;;;;8.20;5.38;;;;;;;;;;5055434;28;20066;-67
2022/04/04 12:42:32;;;;;;;12.68;5.63;;;;;;;;;;5047586;28;20036;-69
2022/04/04 12:45:18;;;;;;;8.93;6.15;;;;;;;;;;5046316;28;20050;-70
2022/04/04 12:48:07;;;;;;;9.02;5.57;;;;;;;;;;5064061;28;20565;-69
2022/04/04 12:50:52;;;;;;;8.00;5.45;;;;;;;;;;5065205;28;20036;-70
2022/04/04 12:53:48;;;;;;;7.70;5.65;;;;;;;;;;5054407;28;20074;-63
2022/04/04 12:56:47;;;;;;;7.57;4.93;;;;;;;;;;5066452;28;20449;-70
2022/04/04 12:59:48;;;;;;;6.75;5.00;;;;;;;;;;5053839;28;20033;-70
2022/04/04 13:02:34;;;;;;;16.33;8.95;;;;;;;;;;5056931;28;20025;-68
2022/04/04 13:05:23;;;;;;;10.32;6.15;;;;;;;;;;5063317;28;20401;-72
2022/04/04 13:08:15;;;;;;;9.48;5.45;;;;;;;;;;5060394;28;20028;-70
2022/04/04 13:11:09;;;;;;;7.93;5.90;;;;;;;;;;5056680;28;20441;-72
2022/04/04 13:13:56;;;;;;;7.72;5.30;;;;;;;;;;5063254;28;20035;-69
2022/04/04 13:16:42;;;;;;;7.35;5.63;;;;;;;;;;5053399;28;20035;-71
2022/04/04 13:19:28;;;;;;;7.05;5.18;;;;;;;;;;5063652;28;20502;-68
2022/04/04 13:22:13;;;;;;;7.65;5.05;;;;;;;;;;5065830;28;20047;-70
2022/04/04 13:24:58;;;;;;;6.20;4.65;;;;;;;;;;5071177;28;20027;-70
2022/04/04 13:27:44;;;;;;;7.25;5.20;;;;;;;;;;5067916;28;20024;-68
2022/04/04 13:30:29;;;;;;;8.70;5.93;;;;;;;;;;5065013;28;20048;-70
2022/04/04 13:33:14;;;;;;;8.15;5.50;;;;;;;;;;5069092;28;20024;-68
2022/04/04 13:36:01;;;;;;;10.52;5.40;;;;;;;;;;5063489;28;20025;-71
2022/04/04 13:38:48;;;;;;;10.60;5.47;;;;;;;;;;5058836;28;20035;-63
2022/04/04 13:41:33;;;;;;;8.02;5.65;;;;;;;;;;5057256;28;20023;-62
2022/04/04 13:44:18;;;;;;;7.25;5.13;;;;;;;;;;5061597;28;20036;-61
2022/04/04 13:47:04;;;;;;;7.85;5.05;;;;;;;;;;5062684;28;20070;-66
2022/04/04 13:49:49;;;;;;;8.68;5.32;;;;;;;;;;5046344;28;20107;-60
2022/04/04 13:52:35;;;;;;;7.57;5.25;;;;;;;;;;5066086;28;20274;-68
2022/04/04 13:55:20;;;;;;;6.97;4.82;;;;;;;;;;5059895;28;20032;-67
2022/04/04 13:58:05;;;;;;;9.27;5.85;;;;;;;;;;5069225;28;20077;-67
2022/04/04 14:00:50;;;;;;;9.75;5.28;;;;;;;;;;5058684;28;20036;-66
2022/04/04 14:03:36;;;;;;;8.43;5.30;;;;;;;;;;5062844;28;20028;-66
2022/04/04 14:06:21;;;;;;;7.93;4.93;;;;;;;;;;5065894;28;20039;-64
2022/04/04 14:09:08;;;;;;;8.68;5.32;;;;;;;;;;5071147;28;20085;-66
2022/04/04 14:11:53;;;;;;;8.88;5.68;;;;;;;;;;5066574;28;20135;-67
2022/04/04 14:14:39;;;;;;;7.40;5.32;;;;;;;;;;5050016;28;20032;-71
2022/04/04 14:17:24;;;;;;;8.95;4.90;;;;;;;;;;5059598;28;20028;-70
2022/04/04 14:20:09;;;;;;;9.48;5.55;;;;;;;;;;5065600;28;20024;-69
2022/04/04 14:22:55;;;;;;;7.40;5.20;;;;;;;;;;5075145;28;20063;-70
2022/04/04 14:25:40;;;;;;;9.70;5.60;;;;;;;;;;5066880;28;20024;-70
2022/04/04 14:28:27;;;;;;;9.27;5.63;;;;;;;;;;5067713;28;20395;-71
2022/04/04 14:31:12;;;;;;;9.23;5.07;;;;;;;;;;5062729;28;20093;-70
2022/04/04 14:34:00;;;;;;;8.93;5.35;;;;;;;;;;5069602;28;20070;-71
2022/04/04 14:36:47;;;;;;;7.72;5.47;;;;;;;;;;5071554;28;20097;-71
2022/04/04 14:39:33;;;;;;;9.73;5.55;;;;;;;;;;5060756;28;20019;-72
2022/04/04 14:42:18;;;;;;;9.93;5.50;;;;;;;;;;5062100;28;20031;-74
2022/04/04 14:45:05;;;;;;;7.40;4.75;;;;;;;;;;5063557;28;20395;-76
2022/04/04 14:47:50;;;;;;;9.38;5.38;;;;;;;;;;5084135;28;20161;-66
2022/04/04 14:50:36;;;;;;;7.65;5.43;;;;;;;;;;5067699;28;20028;-67
2022/04/04 14:53:22;;;;;;;10.10;5.57;;;;;;;;;;5066128;28;20032;-68
2022/04/04 14:56:07;;;;;;;8.32;5.72;;;;;;;;;;5074426;28;20542;-67
2022/04/04 14:58:52;;;;;;;8.30;5.43;;;;;;;;;;5064429;28;20020;-66
2022/04/04 15:01:38;;;;;;;8.75;6.03;;;;;;;;;;5071092;28;20070;-68
2022/04/04 15:04:25;;;;;;;9.68;5.43;;;;;;;;;;5051144;28;20024;-68
2022/04/04 15:07:12;;;;;;;8.82;6.18;;;;;;;;;;5060145;28;20028;-71
2022/04/04 15:09:57;;;;;;;8.05;5.85;;;;;;;;;;5068612;28;20032;-78
2022/04/04 15:12:42;;;;;;;9.35;5.70;;;;;;;;;;5063567;28;20051;-76
2022/04/04 15:15:27;;;;;;;9.07;5.68;;;;;;;;;;5059950;28;20024;-76
2022/04/04 15:18:13;;;;;;;8.32;5.88;;;;;;;;;;5055198;28;20431;-76
2022/04/04 15:20:58;;;;;;;9.13;6.05;;;;;;;;;;5056134;28;20178;-77
2022/04/04 15:23:46;;;;;;;10.02;5.90;;;;;;;;;;5044937;28;20028;-77
2022/04/04 15:26:35;;;;;;;8.70;6.07;;;;;;;;;;5063381;28;20437;-71
2022/04/04 15:29:21;;;;;;;8.45;5.47;;;;;;;;;;5060499;28;20025;-65
2022/04/04 15:32:07;;;;;;;8.45;6.03;;;;;;;;;;5056805;28;20123;-68
2022/04/04 15:34:54;;;;;;;9.65;5.70;;;;;;;;;;5063793;28;20028;-70
2022/04/04 15:37:41;;;;;;;9.80;5.85;;;;;;;;;;5069332;28;20052;-69
2022/04/04 15:40:26;;;;;;;9.35;6.05;;;;;;;;;;5057596;28;20387;-67
2022/04/04 15:43:14;;;;;;;7.45;5.25;;;;;;;;;;5045286;28;20084;-72
2022/04/04 15:45:59;;;;;;;10.55;5.28;;;;;;;;;;5063602;28;20428;-68
2022/04/04 15:48:44;;;;;;;7.78;5.50;;;;;;;;;;5058622;28;20169;-68
2022/04/04 15:51:30;;;;;;;9.77;5.00;;;;;;;;;;5060618;28;20051;-69
2022/04/04 15:54:15;;;;;;;8.75;5.10;;;;;;;;;;5057169;28;20025;-68
2022/04/04 15:57:00;;;;;;;8.73;5.00;;;;;;;;;;5057988;28;20028;-68
2022/04/04 15:59:45;;;;;;;8.60;5.35;;;;;;;;;;5052680;28;20052;-70
2022/04/04 16:02:31;;;;;;;9.05;5.50;;;;;;;;;;5050164;28;20384;-71
2022/04/04 16:05:16;;;;;;;8.50;4.65;;;;;;;;;;5042873;28;20046;-69
2022/04/04 16:08:01;;;;;;;7.80;5.30;;;;;;;;;;5063193;28;20017;-67
2022/04/04 16:10:46;;;;;;;11.07;5.25;;;;;;;;;;5057215;28;20583;-70
2022/04/04 16:13:32;;;;;;;7.30;4.90;;;;;;;;;;5049004;28;20123;-70
2022/04/04 16:16:18;;;;;;;9.02;5.70;;;;;;;;;;5063221;28;20021;-69
2022/04/04 16:19:03;;;;;;;8.13;5.38;;;;;;;;;;5042230;28;20021;-71
2022/04/04 16:21:48;;;;;;;10.20;5.57;;;;;;;;;;5067970;28;20021;-70
2022/04/04 16:24:33;;;;;;;6.10;4.72;;;;;;;;;;5061668;28;20024;-63
2022/04/04 16:27:19;;;;;;;6.82;4.85;;;;;;;;;;5051881;28;20070;-64
2022/04/04 16:30:04;;;;;;;9.05;5.15;;;;;;;;;;5064593;28;20506;-66
2022/04/04 16:32:50;;;;;;;9.27;4.70;;;;;;;;;;5067643;28;20040;-64
2022/04/04 16:35:35;;;;;;;6.80;4.97;;;;;;;;;;5046265;28;20423;-63
2022/04/04 16:38:20;;;;;;;9.63;5.28;;;;;;;;;;5054166;28;20036;-72